Time;durP1;ratioP1;P1;durP2;ratioP2;P2;SDS_P1;SDS_P2;PMS_P1;PMS_P2;Temp;Humidity;BMP_temperature;BMP_pressure;BME280_temperature;BME280_humidity;BME280_pressure;Samples;Min_cycle;Max_cycle;Signal;HPM_P1;HPM_P2
2021/01/30 00:00:23;;;;;;;11.30;6.33;;;-0.30;99.90;;;;;;5025885;28;20222;-47
2021/01/30 00:02:48;;;;;;;10.23;6.27;;;-0.20;99.90;;;;;;5022315;28;20275;-49
2021/01/30 00:05:14;;;;;;;9.37;6.67;;;-0.20;99.90;;;;;;5026769;28;20271;-46
2021/01/30 00:07:40;;;;;;;10.53;6.03;;;-0.20;99.90;;;;;;5022696;28;20427;-48
2021/01/30 00:10:06;;;;;;;10.33;6.90;;;-0.10;99.90;;;;;;5024719;28;20302;-48
2021/01/30 00:12:32;;;;;;;9.43;5.83;;;-0.10;99.90;;;;;;5020104;28;20418;-49
2021/01/30 00:14:57;;;;;;;11.43;6.57;;;-0.10;99.90;;;;;;5013617;28;20200;-49
2021/01/30 00:17:23;;;;;;;8.93;6.00;;;-0.10;99.90;;;;;;5019875;28;20184;-52
2021/01/30 00:19:48;;;;;;;10.50;6.40;;;-0.10;99.90;;;;;;5021316;28;20548;-45
2021/01/30 00:22:17;;;;;;;7.40;5.70;;;-0.10;99.90;;;;;;5021243;28;20540;-51
2021/01/30 00:24:43;;;;;;;10.40;6.30;;;0.00;99.90;;;;;;5021240;28;20378;-55
2021/01/30 00:27:10;;;;;;;8.33;5.87;;;0.00;99.90;;;;;;5025923;28;20218;-46
2021/01/30 00:29:36;;;;;;;11.03;7.07;;;0.00;99.90;;;;;;5014519;28;20211;-49
2021/01/30 00:32:02;;;;;;;9.90;6.10;;;0.00;99.90;;;;;;5026735;28;20207;-50
2021/01/30 00:34:29;;;;;;;8.47;6.60;;;0.00;99.90;;;;;;5021596;28;20499;-47
2021/01/30 00:36:57;;;;;;;10.10;6.60;;;0.00;99.90;;;;;;5025929;28;20180;-50
2021/01/30 00:39:23;;;;;;;9.00;6.73;;;0.00;99.90;;;;;;5022582;28;20196;-50
2021/01/30 00:41:49;;;;;;;8.17;6.23;;;0.10;99.90;;;;;;5024881;28;20184;-49
2021/01/30 00:44:16;;;;;;;9.37;6.60;;;0.10;99.90;;;;;;5024125;28;20190;-48
2021/01/30 00:46:41;;;;;;;9.87;6.50;;;0.10;99.90;;;;;;5027015;28;20400;-48
2021/01/30 00:49:07;;;;;;;10.23;6.30;;;0.10;99.90;;;;;;5022560;28;20203;-46
2021/01/30 00:51:33;;;;;;;7.70;5.47;;;0.10;99.90;;;;;;5018118;28;20480;-47
2021/01/30 00:53:58;;;;;;;8.60;6.13;;;0.10;99.90;;;;;;5023966;28;20269;-50
2021/01/30 00:56:24;;;;;;;9.13;6.27;;;0.10;99.90;;;;;;5022634;28;20188;-51
2021/01/30 00:58:50;;;;;;;9.67;6.10;;;0.20;99.90;;;;;;5023533;28;20184;-47
2021/01/30 01:01:15;;;;;;;8.47;5.97;;;0.20;99.90;;;;;;5010961;28;20728;-51
2021/01/30 01:03:41;;;;;;;12.77;6.17;;;0.20;99.90;;;;;;5019975;28;20279;-46
2021/01/30 01:06:07;;;;;;;10.57;6.60;;;0.20;99.90;;;;;;5022520;28;20182;-49
2021/01/30 01:08:32;;;;;;;8.17;5.57;;;0.20;99.90;;;;;;5019808;28;20188;-47
2021/01/30 01:10:59;;;;;;;7.70;6.20;;;0.20;99.90;;;;;;5025953;28;20242;-47
2021/01/30 01:13:28;;;;;;;9.63;6.67;;;0.20;99.90;;;;;;5021624;28;20330;-48
2021/01/30 01:15:55;;;;;;;9.27;6.63;;;0.30;99.90;;;;;;5017655;28;20242;-47
2021/01/30 01:18:21;;;;;;;10.43;6.17;;;0.30;99.90;;;;;;5022827;28;20183;-50
2021/01/30 01:20:46;;;;;;;11.33;7.47;;;0.30;99.90;;;;;;5023495;28;20192;-48
2021/01/30 01:23:12;;;;;;;10.40;6.47;;;0.30;99.90;;;;;;5025793;28;20181;-49
2021/01/30 01:25:37;;;;;;;7.00;5.67;;;0.30;99.90;;;;;;5025501;28;20305;-46
2021/01/30 01:28:03;;;;;;;8.43;6.80;;;0.30;99.90;;;;;;5021955;28;20266;-48
2021/01/30 01:30:29;;;;;;;11.00;6.37;;;0.30;99.90;;;;;;5012558;28;20392;-46
2021/01/30 01:32:55;;;;;;;10.70;7.07;;;0.30;99.90;;;;;;5023851;28;20268;-49
2021/01/30 01:35:31;;;;;;;7.87;6.13;;;0.40;99.90;;;;;;5023571;28;20176;-49
2021/01/30 01:37:57;;;;;;;8.87;6.47;;;0.40;99.90;;;;;;5032956;28;20198;-51
2021/01/30 01:40:35;;;;;;;11.07;7.47;;;0.40;99.90;;;;;;5025018;28;20668;-49
2021/01/30 01:43:22;;;;;;;9.80;7.03;;;0.40;99.90;;;;;;5029147;28;20184;-50
2021/01/30 01:46:00;;;;;;;9.07;7.37;;;0.40;99.90;;;;;;5019176;28;20204;-47
2021/01/30 01:48:29;;;;;;;8.57;6.30;;;0.40;99.90;;;;;;5025483;28;20263;-50
2021/01/30 01:50:56;;;;;;;9.43;6.63;;;0.50;99.90;;;;;;5033130;28;20199;-48
2021/01/30 01:53:32;;;;;;;10.07;7.33;;;0.40;99.90;;;;;;5026303;28;20240;-53
2021/01/30 01:56:04;;;;;;;10.60;7.00;;;0.50;99.90;;;;;;5028619;28;20634;-46
2021/01/30 01:58:33;;;;;;;10.00;6.87;;;0.50;99.90;;;;;;5019288;28;20307;-52
2021/01/30 02:00:58;;;;;;;12.10;7.17;;;0.50;99.90;;;;;;5028012;28;20226;-53
2021/01/30 02:03:26;;;;;;;10.53;7.43;;;0.50;99.90;;;;;;5015061;28;20200;-48
2021/01/30 02:05:52;;;;;;;11.80;7.03;;;0.50;99.90;;;;;;5028088;28;20617;-50
2021/01/30 02:08:20;;;;;;;11.67;7.47;;;0.50;99.90;;;;;;5026723;28;20347;-48
2021/01/30 02:10:50;;;;;;;7.77;5.90;;;0.50;99.90;;;;;;5025183;28;20212;-48
2021/01/30 02:13:26;;;;;;;10.93;7.30;;;0.50;99.90;;;;;;5022638;28;20204;-51
2021/01/30 02:16:21;;;;;;;9.93;6.87;;;0.50;99.90;;;;;;5031639;28;20173;-47
2021/01/30 02:19:22;;;;;;;8.30;6.80;;;0.50;99.90;;;;;;4996369;28;20293;-49
2021/01/30 02:22:08;;;;;;;12.27;7.17;;;0.50;99.90;;;;;;5022569;28;20187;-49
2021/01/30 02:25:04;;;;;;;12.03;7.63;;;0.50;99.90;;;;;;5024671;28;20906;-49
2021/01/30 02:27:54;;;;;;;10.23;7.57;;;0.50;99.90;;;;;;5023798;28;20188;-50
2021/01/30 02:30:47;;;;;;;8.80;6.27;;;0.50;99.90;;;;;;5025608;28;20201;-48
2021/01/30 02:33:34;;;;;;;10.63;7.00;;;0.60;99.90;;;;;;5023088;28;20217;-48
2021/01/30 02:36:08;;;;;;;10.80;7.53;;;0.60;99.90;;;;;;5027987;28;20181;-50
2021/01/30 02:38:39;;;;;;;11.13;7.53;;;0.60;99.90;;;;;;5023653;28;20181;-49
2021/01/30 02:41:13;;;;;;;11.20;7.43;;;0.60;99.90;;;;;;5028302;28;20698;-51
2021/01/30 02:43:43;;;;;;;9.87;6.87;;;0.60;99.90;;;;;;5022134;28;20424;-46
2021/01/30 02:46:22;;;;;;;9.90;6.93;;;0.60;99.90;;;;;;5024632;28;20214;-50
2021/01/30 02:48:54;;;;;;;12.23;8.23;;;0.60;99.90;;;;;;5016770;28;20898;-49
2021/01/30 02:51:25;;;;;;;12.87;8.23;;;0.60;99.90;;;;;;5025768;28;20193;-53
2021/01/30 02:53:54;;;;;;;11.47;8.37;;;0.60;99.90;;;;;;5025699;28;20208;-51
2021/01/30 02:56:22;;;;;;;11.93;7.80;;;0.60;99.90;;;;;;5026526;28;20262;-50
2021/01/30 02:58:58;;;;;;;11.23;8.27;;;0.60;99.90;;;;;;5026780;28;20181;-49
2021/01/30 03:01:24;;;;;;;12.70;8.73;;;0.60;99.90;;;;;;5024703;28;20211;-46
2021/01/30 03:03:54;;;;;;;12.60;8.50;;;0.60;99.90;;;;;;5017795;28;20204;-53
2021/01/30 03:06:31;;;;;;;12.20;8.63;;;0.60;99.90;;;;;;5024641;28;20188;-47
2021/01/30 03:09:17;;;;;;;13.73;8.77;;;0.60;99.90;;;;;;5027059;28;20210;-50
2021/01/30 03:11:51;;;;;;;11.70;8.00;;;0.60;99.90;;;;;;5020328;28;20332;-50
2021/01/30 03:14:20;;;;;;;14.93;8.60;;;0.60;99.90;;;;;;5026065;28;20219;-52
2021/01/30 03:16:47;;;;;;;11.03;7.93;;;0.60;99.90;;;;;;5031659;28;20411;-52
2021/01/30 03:19:20;;;;;;;13.67;9.13;;;0.60;99.90;;;;;;5024688;28;20226;-52
2021/01/30 03:21:48;;;;;;;12.40;8.40;;;0.60;99.90;;;;;;5023187;28;20432;-46
2021/01/30 03:24:13;;;;;;;11.47;8.20;;;0.60;99.90;;;;;;5025891;28;20246;-47
2021/01/30 03:26:44;;;;;;;11.27;8.47;;;0.50;99.90;;;;;;5024551;28;20708;-47
2021/01/30 03:29:12;;;;;;;12.57;8.40;;;0.50;99.90;;;;;;5026433;28;20192;-49
2021/01/30 03:31:38;;;;;;;11.83;7.47;;;0.50;99.90;;;;;;5024314;28;20224;-48
2021/01/30 03:34:05;;;;;;;11.73;8.10;;;0.50;99.90;;;;;;5027438;28;20244;-46
2021/01/30 03:36:30;;;;;;;12.83;8.07;;;0.50;99.90;;;;;;5009206;28;20443;-49
2021/01/30 03:38:56;;;;;;;10.93;7.87;;;0.50;99.90;;;;;;5031550;28;20583;-50
2021/01/30 03:41:22;;;;;;;12.80;8.60;;;0.40;99.90;;;;;;5024070;28;20563;-47
2021/01/30 03:43:47;;;;;;;11.30;7.83;;;0.40;99.90;;;;;;5023615;28;20176;-48
2021/01/30 03:46:13;;;;;;;13.07;7.33;;;0.40;99.90;;;;;;5022450;28;20193;-49
2021/01/30 03:48:38;;;;;;;12.60;8.40;;;0.40;99.90;;;;;;5020402;28;20421;-49
2021/01/30 03:51:04;;;;;;;12.47;8.43;;;0.40;99.90;;;;;;5016066;28;20713;-51
2021/01/30 03:53:29;;;;;;;13.10;8.50;;;0.30;99.90;;;;;;5019424;28;20206;-47
2021/01/30 03:55:55;;;;;;;13.20;8.50;;;0.40;99.90;;;;;;5025550;28;20240;-46
2021/01/30 03:58:20;;;;;;;13.47;8.40;;;0.30;99.90;;;;;;5032681;28;20190;-47
2021/01/30 04:00:46;;;;;;;10.50;7.87;;;0.30;99.90;;;;;;5023353;28;20891;-47
2021/01/30 04:03:11;;;;;;;11.93;8.43;;;0.30;99.90;;;;;;5022497;28;20184;-47
2021/01/30 04:05:37;;;;;;;13.27;8.97;;;0.30;99.90;;;;;;5012080;28;20223;-46
2021/01/30 04:08:02;;;;;;;14.10;8.27;;;0.20;99.90;;;;;;5014731;28;20570;-48
2021/01/30 04:10:31;;;;;;;13.10;8.90;;;0.20;99.90;;;;;;5022642;28;20192;-50
2021/01/30 04:12:58;;;;;;;11.73;8.40;;;0.20;99.90;;;;;;5024214;28;20578;-50
2021/01/30 04:15:27;;;;;;;13.47;9.90;;;0.20;99.90;;;;;;5022757;28;20837;-46
2021/01/30 04:17:53;;;;;;;16.47;9.37;;;0.20;99.90;;;;;;5025773;28;20625;-47
2021/01/30 04:20:19;;;;;;;15.00;9.00;;;0.20;99.90;;;;;;5026622;28;20208;-48
2021/01/30 04:22:45;;;;;;;15.53;9.47;;;0.10;99.90;;;;;;5016310;28;20197;-45
2021/01/30 04:25:17;;;;;;;14.27;8.87;;;0.10;99.90;;;;;;5019399;28;20541;-48
2021/01/30 04:27:43;;;;;;;16.53;10.30;;;0.10;99.90;;;;;;5022743;28;20193;-45
2021/01/30 04:30:11;;;;;;;15.37;9.77;;;0.10;99.90;;;;;;5019079;28;20509;-48
2021/01/30 04:32:36;;;;;;;14.07;9.90;;;0.10;99.90;;;;;;5022509;28;20545;-48
2021/01/30 04:35:02;;;;;;;13.90;9.77;;;0.10;99.90;;;;;;5020864;28;20172;-51
2021/01/30 04:37:28;;;;;;;16.93;10.67;;;0.10;99.90;;;;;;5014795;28;20196;-49
2021/01/30 04:39:53;;;;;;;17.07;11.07;;;0.10;99.90;;;;;;5028450;28;20234;-47
2021/01/30 04:42:36;;;;;;;17.83;10.73;;;0.10;99.90;;;;;;5022027;28;20203;-49
2021/01/30 04:45:13;;;;;;;17.97;9.93;;;0.10;99.90;;;;;;5023998;28;20177;-47
2021/01/30 04:48:05;;;;;;;18.23;10.40;;;0.10;99.90;;;;;;5028667;28;20241;-51
2021/01/30 04:50:41;;;;;;;15.60;10.43;;;0.10;99.90;;;;;;5019067;28;20471;-47
2021/01/30 04:53:37;;;;;;;16.90;10.53;;;0.10;99.90;;;;;;5013457;28;20211;-50
2021/01/30 04:56:12;;;;;;;16.80;10.97;;;0.10;99.90;;;;;;5026485;28;20180;-47
2021/01/30 04:59:20;;;;;;;17.57;10.20;;;0.00;99.90;;;;;;5023444;28;20184;-48
2021/01/30 05:01:54;;;;;;;18.80;10.83;;;0.00;99.90;;;;;;5022646;28;20186;-46
2021/01/30 05:04:26;;;;;;;19.00;11.20;;;0.00;99.90;;;;;;5026107;28;20274;-46
2021/01/30 05:07:09;;;;;;;19.23;11.23;;;0.00;99.90;;;;;;5018838;28;20517;-49
2021/01/30 05:09:54;;;;;;;19.33;11.40;;;0.00;99.90;;;;;;5016263;28;20561;-48
2021/01/30 05:12:48;;;;;;;19.10;11.20;;;0.00;99.90;;;;;;5024786;28;20296;-50
2021/01/30 05:15:39;;;;;;;19.50;11.03;;;0.00;99.90;;;;;;5018684;28;20206;-49
2021/01/30 05:18:27;;;;;;;16.80;10.00;;;0.00;99.90;;;;;;5023645;28;20276;-53
2021/01/30 05:21:02;;;;;;;17.13;10.93;;;0.00;99.90;;;;;;5025403;28;20353;-49
2021/01/30 05:23:29;;;;;;;18.83;10.83;;;0.00;99.90;;;;;;5024919;28;20260;-51
2021/01/30 05:26:04;;;;;;;18.20;11.57;;;0.00;99.90;;;;;;5011106;28;20201;-51
2021/01/30 05:28:41;;;;;;;20.07;10.83;;;-0.10;99.90;;;;;;5015016;28;20179;-48
2021/01/30 05:31:24;;;;;;;17.70;11.03;;;-0.10;99.90;;;;;;5019698;28;20669;-49
2021/01/30 05:34:06;;;;;;;17.97;10.57;;;-0.10;99.90;;;;;;5022469;28;20213;-47
2021/01/30 05:37:08;;;;;;;16.87;10.40;;;-0.10;99.90;;;;;;5021064;28;20462;-48
2021/01/30 05:39:47;;;;;;;20.77;10.93;;;-0.10;99.90;;;;;;5006376;28;20898;-46
2021/01/30 05:42:22;;;;;;;18.50;10.03;;;-0.10;99.90;;;;;;5011161;28;20216;-53
2021/01/30 05:44:51;;;;;;;17.07;9.93;;;-0.20;99.90;;;;;;5016699;28;20185;-45
2021/01/30 05:47:22;;;;;;;15.00;9.77;;;-0.20;99.90;;;;;;5018078;28;20195;-49
2021/01/30 05:50:07;;;;;;;17.27;10.00;;;-0.20;99.90;;;;;;5022038;28;20208;-45
2021/01/30 05:52:37;;;;;;;17.93;8.53;;;-0.20;99.90;;;;;;5016457;28;20978;-47
2021/01/30 05:55:05;;;;;;;13.87;8.80;;;-0.30;99.90;;;;;;5019289;28;20207;-48
2021/01/30 05:57:31;;;;;;;15.73;9.23;;;-0.30;99.90;;;;;;5007986;28;20183;-48
2021/01/30 05:59:59;;;;;;;15.13;9.50;;;-0.30;99.90;;;;;;5018277;28;20680;-52
2021/01/30 06:02:27;;;;;;;13.40;9.43;;;-0.40;99.90;;;;;;5019471;28;20182;-45
2021/01/30 06:04:53;;;;;;;14.67;9.57;;;-0.40;99.90;;;;;;5021177;28;20185;-45
2021/01/30 06:07:28;;;;;;;15.67;9.10;;;-0.40;99.90;;;;;;5019122;28;20836;-47
2021/01/30 06:09:54;;;;;;;14.87;9.33;;;-0.40;99.90;;;;;;5016950;28;20310;-49
2021/01/30 06:12:22;;;;;;;16.90;9.73;;;-0.40;99.90;;;;;;5009815;28;20201;-46
2021/01/30 06:14:48;;;;;;;14.40;8.77;;;-0.40;99.90;;;;;;5023554;28;20208;-46
2021/01/30 06:17:21;;;;;;;13.97;9.63;;;-0.40;99.90;;;;;;5018161;28;20193;-47
2021/01/30 06:20:16;;;;;;;13.87;8.00;;;-0.50;99.90;;;;;;5024373;28;20275;-47
2021/01/30 06:22:44;;;;;;;11.40;8.20;;;-0.60;99.90;;;;;;5025754;28;20273;-48
2021/01/30 06:25:32;;;;;;;11.73;8.07;;;-0.60;99.90;;;;;;5017744;28;20192;-52
2021/01/30 06:28:04;;;;;;;15.10;8.37;;;-0.60;99.90;;;;;;5016024;28;20224;-48
2021/01/30 06:30:39;;;;;;;13.33;7.87;;;-0.70;99.90;;;;;;5022828;28;20200;-47
2021/01/30 06:33:28;;;;;;;12.07;7.80;;;-0.70;99.90;;;;;;5017272;28;20207;-47
2021/01/30 06:35:57;;;;;;;10.57;7.17;;;-0.70;99.90;;;;;;5022110;28;20645;-50
2021/01/30 06:38:30;;;;;;;12.30;8.00;;;-0.70;99.90;;;;;;5022874;28;20213;-51
2021/01/30 06:41:03;;;;;;;10.87;6.90;;;-0.80;99.90;;;;;;5023412;28;20200;-48
2021/01/30 06:43:37;;;;;;;12.30;7.97;;;-0.80;99.90;;;;;;5019812;28;20199;-48
2021/01/30 06:46:08;;;;;;;12.27;7.20;;;-0.80;99.90;;;;;;5027807;28;20184;-53
2021/01/30 06:48:38;;;;;;;12.00;7.50;;;-0.90;99.90;;;;;;5028593;28;20188;-50
2021/01/30 06:51:36;;;;;;;11.23;7.13;;;-0.90;99.90;;;;;;5026847;28;20213;-52
2021/01/30 06:54:37;;;;;;;11.73;7.63;;;-0.90;99.90;;;;;;5019151;28;20568;-54
2021/01/30 06:57:05;;;;;;;10.27;7.10;;;-0.90;99.90;;;;;;4954144;28;20219;-50
2021/01/30 06:59:35;;;;;;;9.67;6.57;;;-0.90;99.90;;;;;;5005100;28;20244;-49
2021/01/30 07:02:13;;;;;;;11.33;7.10;;;-1.00;99.90;;;;;;5015282;28;20726;-48
2021/01/30 07:04:54;;;;;;;10.00;6.70;;;-1.00;99.90;;;;;;5024912;28;20184;-49
2021/01/30 07:07:29;;;;;;;10.53;7.03;;;-1.10;99.90;;;;;;5023035;28;20305;-50
2021/01/30 07:10:06;;;;;;;9.40;6.00;;;-1.10;99.90;;;;;;5019818;28;20771;-51
2021/01/30 07:12:58;;;;;;;9.60;5.80;;;-1.10;99.90;;;;;;5023137;28;20214;-50
2021/01/30 07:15:32;;;;;;;12.17;6.93;;;-1.10;99.90;;;;;;5021594;28;20267;-54
2021/01/30 07:18:23;;;;;;;9.30;6.23;;;-1.10;99.90;;;;;;5021439;28;20184;-48
2021/01/30 07:21:07;;;;;;;10.20;7.03;;;-1.10;99.90;;;;;;5031010;28;20602;-50
2021/01/30 07:23:49;;;;;;;9.07;6.70;;;-1.10;99.90;;;;;;5026644;28;20176;-52
2021/01/30 07:26:23;;;;;;;11.00;6.77;;;-1.10;99.90;;;;;;5025389;28;20428;-50
2021/01/30 07:29:10;;;;;;;9.93;6.50;;;-1.10;99.90;;;;;;5022073;28;20199;-51
2021/01/30 07:31:48;;;;;;;10.03;6.50;;;-1.10;99.90;;;;;;5018847;28;20188;-50
2021/01/30 07:34:49;;;;;;;8.43;6.30;;;-1.10;99.90;;;;;;5028674;28;20940;-51
2021/01/30 07:37:30;;;;;;;8.80;6.13;;;-1.10;99.90;;;;;;5021422;28;20176;-48
2021/01/30 07:40:00;;;;;;;10.33;6.47;;;-1.10;99.90;;;;;;5021286;28;20278;-53
2021/01/30 07:42:36;;;;;;;8.67;5.80;;;-1.10;99.90;;;;;;5019798;28;20208;-54
2021/01/30 07:45:29;;;;;;;9.47;6.33;;;-1.10;99.90;;;;;;5015786;28;20691;-50
2021/01/30 07:48:19;;;;;;;7.97;5.70;;;-1.10;99.90;;;;;;5011768;28;20583;-52
2021/01/30 07:50:54;;;;;;;13.27;7.03;;;-1.10;99.90;;;;;;5026162;28;20322;-53
2021/01/30 07:53:25;;;;;;;11.37;6.53;;;-1.10;99.90;;;;;;5013955;28;20216;-51
2021/01/30 07:56:31;;;;;;;8.70;6.77;;;-1.00;99.90;;;;;;5009966;28;20779;-46
2021/01/30 07:59:24;;;;;;;11.73;6.90;;;-1.00;99.90;;;;;;5013098;28;20223;-50
2021/01/30 08:02:15;;;;;;;10.73;6.47;;;-1.00;99.90;;;;;;5013881;28;20306;-49
2021/01/30 08:05:15;;;;;;;12.17;7.30;;;-1.00;99.90;;;;;;5019901;28;20222;-50
2021/01/30 08:08:02;;;;;;;9.37;6.37;;;-1.00;99.90;;;;;;5025260;28;20183;-48
2021/01/30 08:10:54;;;;;;;10.73;7.50;;;-1.00;99.90;;;;;;5032467;28;20200;-49
2021/01/30 08:13:53;;;;;;;10.77;7.40;;;-0.90;99.90;;;;;;5012915;28;20214;-47
2021/01/30 08:16:27;;;;;;;9.93;6.83;;;-1.00;99.90;;;;;;5016847;28;20267;-49
2021/01/30 08:18:55;;;;;;;8.87;5.87;;;-0.90;99.90;;;;;;5018977;28;20214;-53
2021/01/30 08:21:41;;;;;;;8.67;6.80;;;-0.90;99.90;;;;;;5018146;28;20203;-47
2021/01/30 08:24:16;;;;;;;10.07;6.70;;;-0.90;99.90;;;;;;5020503;28;20195;-47
2021/01/30 08:26:54;;;;;;;10.57;6.73;;;-0.90;99.90;;;;;;5023516;28;20603;-49
2021/01/30 08:29:27;;;;;;;12.20;7.90;;;-0.90;99.90;;;;;;5014801;28;20210;-49
2021/01/30 08:32:00;;;;;;;8.97;6.40;;;-0.90;99.90;;;;;;5013698;28;20195;-52
2021/01/30 08:34:33;;;;;;;9.90;7.30;;;-0.90;99.90;;;;;;5009128;28;20957;-50
2021/01/30 08:37:11;;;;;;;11.17;6.97;;;-0.80;99.90;;;;;;5020953;28;20280;-49
2021/01/30 08:39:57;;;;;;;9.90;7.23;;;-0.70;99.90;;;;;;5016219;28;20204;-48
2021/01/30 08:42:23;;;;;;;11.77;7.40;;;-0.70;99.90;;;;;;5020291;28;20996;-49
2021/01/30 08:44:48;;;;;;;10.90;6.47;;;-0.70;99.90;;;;;;5018950;28;20230;-49
2021/01/30 08:47:27;;;;;;;11.37;7.10;;;-0.70;99.90;;;;;;5015588;28;20963;-49
2021/01/30 08:50:13;;;;;;;10.80;7.27;;;-0.70;99.90;;;;;;5016850;28;20204;-51
2021/01/30 08:52:48;;;;;;;11.77;6.57;;;-0.60;99.90;;;;;;5023039;28;20196;-51
2021/01/30 08:55:47;;;;;;;10.20;6.83;;;-0.60;99.90;;;;;;5014820;28;20330;-51
2021/01/30 08:58:32;;;;;;;9.67;7.00;;;-0.60;99.90;;;;;;5019869;28;20188;-52
2021/01/30 09:01:06;;;;;;;14.87;7.60;;;-0.50;99.90;;;;;;5015105;28;20265;-53
2021/01/30 09:03:52;;;;;;;11.40;7.10;;;-0.40;99.90;;;;;;5016814;28;20286;-51
2021/01/30 09:06:39;;;;;;;12.07;7.37;;;-0.30;99.90;;;;;;5014799;28;20257;-49
2021/01/30 09:09:12;;;;;;;9.97;6.60;;;-0.20;99.90;;;;;;5018155;28;20588;-52
2021/01/30 09:11:41;;;;;;;8.10;6.57;;;-0.10;99.90;;;;;;5022179;28;20661;-48
2021/01/30 09:14:16;;;;;;;9.67;6.30;;;0.00;99.90;;;;;;5017801;28;20224;-50
2021/01/30 09:17:00;;;;;;;9.70;6.63;;;0.20;99.90;;;;;;5023260;28;20931;-46
2021/01/30 09:19:32;;;;;;;8.63;5.80;;;0.20;99.90;;;;;;5012504;28;20239;-47
2021/01/30 09:22:07;;;;;;;8.10;6.50;;;0.30;99.90;;;;;;5022074;28;20170;-50
2021/01/30 09:25:05;;;;;;;7.13;6.10;;;0.30;99.90;;;;;;5012432;28;20195;-46
2021/01/30 09:27:34;;;;;;;7.50;5.80;;;0.30;99.90;;;;;;5020259;28;20172;-47
2021/01/30 09:30:16;;;;;;;8.87;5.40;;;0.30;99.90;;;;;;5013846;28;20217;-52
2021/01/30 09:32:47;;;;;;;6.57;5.43;;;0.30;99.90;;;;;;5023257;28;20181;-47
2021/01/30 09:35:27;;;;;;;7.13;5.10;;;0.30;99.90;;;;;;5007225;28;20195;-52
2021/01/30 09:37:52;;;;;;;7.33;5.77;;;0.40;99.90;;;;;;5019170;28;20194;-50
2021/01/30 09:40:29;;;;;;;5.23;4.73;;;0.60;99.90;;;;;;5013698;28;20951;-50
2021/01/30 09:43:01;;;;;;;7.07;5.17;;;0.70;99.90;;;;;;5020592;28;20174;-49
2021/01/30 09:45:27;;;;;;;7.03;4.70;;;0.70;99.90;;;;;;5018283;28;20209;-51
2021/01/30 09:47:54;;;;;;;7.33;5.30;;;0.60;99.90;;;;;;5026488;28;20216;-47
2021/01/30 09:50:32;;;;;;;7.27;4.67;;;0.60;99.90;;;;;;5015428;28;20196;-49
2021/01/30 09:53:02;;;;;;;8.37;5.27;;;0.50;99.90;;;;;;5007504;28;20209;-48
2021/01/30 09:55:27;;;;;;;6.23;4.70;;;0.60;99.90;;;;;;5012765;28;20184;-49
2021/01/30 09:58:06;;;;;;;6.23;5.37;;;0.60;99.90;;;;;;5027267;28;20248;-49
2021/01/30 10:00:41;;;;;;;6.47;5.17;;;0.70;99.90;;;;;;5022014;28;20214;-55
2021/01/30 10:03:16;;;;;;;5.70;5.10;;;0.80;99.90;;;;;;5019371;28;20195;-56
2021/01/30 10:05:42;;;;;;;5.13;4.63;;;0.90;99.90;;;;;;5023089;28;20598;-49
2021/01/30 10:08:33;;;;;;;5.83;4.13;;;0.90;99.90;;;;;;5016923;28;20239;-54
2021/01/30 10:11:17;;;;;;;6.53;4.47;;;0.90;99.90;;;;;;5031471;28;20203;-52
2021/01/30 10:13:55;;;;;;;6.03;4.77;;;0.80;99.90;;;;;;5026264;28;20223;-47
2021/01/30 10:16:24;;;;;;;5.60;4.30;;;0.90;99.90;;;;;;5018415;28;20940;-51
2021/01/30 10:19:18;;;;;;;7.20;4.67;;;0.90;99.90;;;;;;5027626;28;20201;-49
2021/01/30 10:21:44;;;;;;;5.20;4.20;;;1.00;99.90;;;;;;5017809;28;20352;-52
2021/01/30 10:24:26;;;;;;;6.67;5.00;;;0.90;99.90;;;;;;5023712;28;20268;-51
2021/01/30 10:26:54;;;;;;;7.10;5.23;;;0.90;99.90;;;;;;5025732;28;20248;-52
2021/01/30 10:29:23;;;;;;;5.57;4.30;;;0.90;99.90;;;;;;5023230;28;20223;-48
2021/01/30 10:32:01;;;;;;;5.07;4.57;;;0.90;99.90;;;;;;5025153;28;20220;-46
2021/01/30 10:34:32;;;;;;;4.80;3.93;;;1.00;99.90;;;;;;5020707;28;20268;-50
2021/01/30 10:37:07;;;;;;;5.43;4.10;;;1.00;99.90;;;;;;5023472;28;20185;-50
2021/01/30 10:39:38;;;;;;;5.23;4.13;;;1.00;99.90;;;;;;5029630;28;20199;-50
2021/01/30 10:42:08;;;;;;;5.43;4.50;;;1.00;99.90;;;;;;5023517;28;20546;-51
2021/01/30 10:44:35;;;;;;;7.57;4.50;;;1.00;99.90;;;;;;5020952;28;20209;-48
2021/01/30 10:47:03;;;;;;;5.63;4.17;;;1.10;99.90;;;;;;5022714;28;20194;-50
2021/01/30 10:49:31;;;;;;;6.17;4.30;;;1.10;99.90;;;;;;5018719;28;20817;-52
2021/01/30 10:52:03;;;;;;;4.93;4.03;;;1.20;99.90;;;;;;5024232;28;20186;-50
2021/01/30 10:54:30;;;;;;;4.40;3.57;;;1.10;99.90;;;;;;5016710;28;20233;-49
2021/01/30 10:57:17;;;;;;;5.70;4.37;;;1.10;99.90;;;;;;5029668;28;20183;-47
2021/01/30 10:59:56;;;;;;;5.87;4.00;;;1.10;99.90;;;;;;5025064;28;20212;-45
2021/01/30 11:02:26;;;;;;;6.47;4.23;;;1.10;99.90;;;;;;5022110;28;20254;-48
2021/01/30 11:05:04;;;;;;;4.53;4.13;;;1.10;99.90;;;;;;5019749;28;20285;-52
2021/01/30 11:07:42;;;;;;;5.90;4.63;;;1.20;99.90;;;;;;5021216;28;20248;-53
2021/01/30 11:10:26;;;;;;;5.73;4.40;;;1.40;99.90;;;;;;5016546;28;20216;-48
2021/01/30 11:12:53;;;;;;;4.27;3.87;;;1.50;99.90;;;;;;5018426;28;20203;-53
2021/01/30 11:15:22;;;;;;;4.03;3.63;;;1.50;99.90;;;;;;5032302;28;20182;-52
2021/01/30 11:17:49;;;;;;;5.77;3.80;;;1.40;99.90;;;;;;5022150;28;20173;-51
2021/01/30 11:21:00;;;;;;;5.03;4.00;;;1.30;99.90;;;;;;5030269;28;20299;-49
2021/01/30 11:23:42;;;;;;;4.47;3.90;;;1.30;99.90;;;;;;5017357;28;21106;-54
2021/01/30 11:26:20;;;;;;;4.07;3.43;;;1.30;99.90;;;;;;5019338;28;20198;-54
2021/01/30 11:28:48;;;;;;;5.77;4.37;;;1.30;99.90;;;;;;5026480;28;20197;-53
2021/01/30 11:31:15;;;;;;;4.73;3.57;;;1.30;99.90;;;;;;5025244;28;20208;-55
2021/01/30 11:33:42;;;;;;;3.97;3.63;;;1.30;99.90;;;;;;5023046;28;20252;-55
2021/01/30 11:36:11;;;;;;;3.83;3.53;;;1.30;99.90;;;;;;5011353;28;20190;-53
2021/01/30 11:38:37;;;;;;;4.97;4.43;;;1.30;99.90;;;;;;5019956;28;20189;-56
2021/01/30 11:41:03;;;;;;;6.13;4.50;;;1.30;99.90;;;;;;5005587;28;20912;-55
2021/01/30 11:43:28;;;;;;;5.33;4.10;;;1.30;99.90;;;;;;5023091;28;20187;-50
2021/01/30 11:45:55;;;;;;;4.73;4.13;;;1.30;99.90;;;;;;5012032;28;20685;-55
2021/01/30 11:48:22;;;;;;;5.03;4.50;;;1.30;99.90;;;;;;5016536;28;20178;-53
2021/01/30 11:50:49;;;;;;;6.57;4.57;;;1.30;99.90;;;;;;5019489;28;20264;-53
2021/01/30 11:53:18;;;;;;;6.83;4.17;;;1.30;99.90;;;;;;5011837;28;20245;-53
2021/01/30 11:55:44;;;;;;;5.13;3.93;;;1.40;99.90;;;;;;5012263;28;21024;-54
2021/01/30 11:58:11;;;;;;;6.10;4.27;;;1.30;99.90;;;;;;5015861;28;20876;-50
2021/01/30 12:00:36;;;;;;;4.67;3.77;;;1.30;99.90;;;;;;5017983;28;20253;-51
2021/01/30 12:03:03;;;;;;;5.33;4.40;;;1.20;99.90;;;;;;5023051;28;20179;-53
2021/01/30 12:05:30;;;;;;;9.33;4.97;;;1.20;99.90;;;;;;5021933;28;20194;-51
2021/01/30 12:07:56;;;;;;;7.10;4.43;;;1.20;99.90;;;;;;5014000;28;20183;-56
2021/01/30 12:10:22;;;;;;;5.83;5.20;;;1.20;99.90;;;;;;5009345;28;20205;-52
2021/01/30 12:12:48;;;;;;;6.03;4.93;;;1.20;99.90;;;;;;5023375;28;20184;-51
2021/01/30 12:15:14;;;;;;;5.97;5.13;;;1.20;99.90;;;;;;5019098;28;20262;-53
2021/01/30 12:17:45;;;;;;;8.37;5.17;;;1.20;99.90;;;;;;5019481;28;20195;-54
2021/01/30 12:20:19;;;;;;;7.60;5.37;;;1.20;99.90;;;;;;5018312;28;20917;-52
2021/01/30 12:22:44;;;;;;;9.47;5.27;;;1.30;99.90;;;;;;5018670;28;20192;-49
2021/01/30 12:25:10;;;;;;;9.27;5.30;;;1.40;99.90;;;;;;5011793;28;20958;-50
2021/01/30 12:27:40;;;;;;;8.50;5.13;;;1.40;99.90;;;;;;5020514;28;20219;-49
2021/01/30 12:30:06;;;;;;;5.77;5.13;;;1.40;99.90;;;;;;5011885;28;20203;-51
2021/01/30 12:32:32;;;;;;;7.07;6.03;;;1.50;99.90;;;;;;5020400;28;20241;-50
2021/01/30 12:34:58;;;;;;;7.80;5.10;;;1.50;99.90;;;;;;5023044;28;20688;-50
2021/01/30 12:37:23;;;;;;;10.20;5.13;;;1.50;99.90;;;;;;5017624;28;20199;-52
2021/01/30 12:39:49;;;;;;;6.27;4.93;;;1.50;99.90;;;;;;5016665;28;20625;-51
2021/01/30 12:42:15;;;;;;;5.30;4.53;;;1.50;99.90;;;;;;5015692;28;20313;-49
2021/01/30 12:44:40;;;;;;;8.33;4.60;;;1.50;99.90;;;;;;5026690;28;20205;-50
2021/01/30 12:47:05;;;;;;;5.57;4.33;;;1.50;99.90;;;;;;5020372;28;20245;-49
2021/01/30 12:49:31;;;;;;;7.37;4.73;;;1.50;99.90;;;;;;5022780;28;20631;-52
2021/01/30 12:51:57;;;;;;;6.73;4.37;;;1.60;99.90;;;;;;5021297;28;20240;-51
2021/01/30 12:54:23;;;;;;;6.00;4.87;;;1.60;99.90;;;;;;5008855;28;20211;-51
2021/01/30 12:56:49;;;;;;;5.07;4.13;;;1.60;99.90;;;;;;5024091;28;20213;-52
2021/01/30 12:59:14;;;;;;;4.43;3.80;;;1.60;99.90;;;;;;5010146;28;20194;-52
2021/01/30 13:01:40;;;;;;;4.17;3.73;;;1.50;99.90;;;;;;5027638;28;20194;-50
2021/01/30 13:04:06;;;;;;;5.33;3.80;;;1.40;99.90;;;;;;5027202;28;20915;-55
2021/01/30 13:06:32;;;;;;;5.67;3.90;;;1.40;99.90;;;;;;5021565;28;20509;-52
2021/01/30 13:08:58;;;;;;;4.53;3.33;;;1.30;99.90;;;;;;5025849;28;20206;-51
2021/01/30 13:11:23;;;;;;;3.40;3.10;;;1.30;99.90;;;;;;5024500;28;20183;-51
2021/01/30 13:13:49;;;;;;;5.30;3.77;;;1.20;99.90;;;;;;5022208;28;20627;-56
2021/01/30 13:16:14;;;;;;;3.90;3.40;;;1.20;99.90;;;;;;5015823;28;20213;-51
2021/01/30 13:18:40;;;;;;;3.87;3.23;;;1.20;99.90;;;;;;5023001;28;20191;-46